This is the latest recevied weather packets stored in our database for station/object MB7UUE. If no packets are shown the sender has not sent any weather packets the latest 10 day(s).
| Time | Temp. | Humidity | Pressure | Rain* | Wind** | Luminosity | Snow |
|---|---|---|---|---|---|---|---|
| 1787597030 | 18.89° C | 56% | 1015.6 hPa | 0 mm | - | - | - |
| 1787595890 | 18.89° C | 55% | 1015.5 hPa | 0 mm | - | - | - |
| 1787594749 | 19.44° C | 52% | 1015.5 hPa | 0 mm | - | - | - |
| 1787593610 | 19.44° C | 52% | 1015.9 hPa | 0 mm | - | - | - |
| 1787592469 | 19.44° C | 53% | 1016.1 hPa | 0 mm | - | - | - |
| 1787591330 | 20° C | 49% | 1016.3 hPa | 0 mm | - | - | - |
| 1787590189 | 20° C | 49% | 1016.6 hPa | 0 mm | - | - | - |
| 1787589049 | 20° C | 49% | 1016.8 hPa | 0 mm | - | - | - |
| 1787587910 | 20° C | 47% | 1016.9 hPa | 0 mm | - | - | - |
| 1787586769 | 20.56° C | 47% | 1017 hPa | 0 mm | - | - | - |
| 1787585630 | 20.56° C | 46% | 1017.3 hPa | 0 mm | - | - | - |
| 1787584489 | 21.11° C | 45% | 1017.4 hPa | 0 mm | - | - | - |
| 1787583350 | 21.11° C | 44% | 1017.6 hPa | 0 mm | - | - | - |
| 1787582209 | 21.11° C | 45% | 1018 hPa | 0 mm | - | - | - |
| 1787581070 | 21.11° C | 43% | 1018.3 hPa | 0 mm | - | - | - |
| 1787579930 | 21.67° C | 46% | 1018.5 hPa | 0 mm | - | - | - |
| 1787578788 | 21.67° C | 46% | 1018.6 hPa | 0 mm | - | - | - |
| 1787577650 | 21.67° C | 46% | 1018.6 hPa | 0 mm | - | - | - |
| 1787576510 | 21.11° C | 46% | 1018.7 hPa | 0 mm | - | - | - |
| 1787575370 | 21.11° C | 48% | 1019 hPa | 0 mm | - | - | - |
| 1787574229 | 20.56° C | 53% | 1019.2 hPa | 0 mm | - | - | - |
| 1787573088 | 20.56° C | 53% | 1019.5 hPa | 0 mm | - | - | - |
| 1787571949 | 20° C | 56% | 1019.6 hPa | 0 mm | - | - | - |
| 1787570809 | 20° C | 56% | 1019.8 hPa | 0 mm | - | - | - |
| 1787569670 | 20° C | 56% | 1019.9 hPa | 0 mm | - | - | - |
* Rain latest hour (hover to see other rain measurements)
** Current wind speed in m/s (hover to see current wind gust speed)